sensor_id;sensor_type;location;lat;lon;timestamp;P1;durP1;ratioP1;P2;durP2;ratioP2
22603;SDS011;11469;49.024;8.246;2022-08-14T00:00:00;2.78;;;1.90;;
22603;SDS011;11469;49.024;8.246;2022-08-14T00:02:26;2.83;;;2.00;;
22603;SDS011;11469;49.024;8.246;2022-08-14T00:04:52;2.42;;;2.00;;
22603;SDS011;11469;49.024;8.246;2022-08-14T00:07:17;3.15;;;2.13;;
22603;SDS011;11469;49.024;8.246;2022-08-14T00:09:43;5.35;;;2.05;;
22603;SDS011;11469;49.024;8.246;2022-08-14T00:12:09;3.30;;;2.00;;
22603;SDS011;11469;49.024;8.246;2022-08-14T00:14:35;3.70;;;2.38;;
22603;SDS011;11469;49.024;8.246;2022-08-14T00:17:01;4.50;;;2.47;;
22603;SDS011;11469;49.024;8.246;2022-08-14T00:19:27;3.00;;;2.25;;
22603;SDS011;11469;49.024;8.246;2022-08-14T00:21:53;4.35;;;2.25;;
22603;SDS011;11469;49.024;8.246;2022-08-14T00:24:19;3.55;;;2.22;;
22603;SDS011;11469;49.024;8.246;2022-08-14T00:26:46;13.02;;;2.50;;
22603;SDS011;11469;49.024;8.246;2022-08-14T00:29:11;6.70;;;2.53;;
22603;SDS011;11469;49.024;8.246;2022-08-14T00:31:36;4.57;;;2.15;;
22603;SDS011;11469;49.024;8.246;2022-08-14T00:34:02;13.35;;;2.25;;
22603;SDS011;11469;49.024;8.246;2022-08-14T00:36:28;7.25;;;2.72;;
22603;SDS011;11469;49.024;8.246;2022-08-14T00:38:53;11.30;;;2.65;;
22603;SDS011;11469;49.024;8.246;2022-08-14T00:41:19;13.57;;;2.40;;
22603;SDS011;11469;49.024;8.246;2022-08-14T00:43:44;10.68;;;2.17;;
22603;SDS011;11469;49.024;8.246;2022-08-14T00:46:10;7.72;;;2.42;;
22603;SDS011;11469;49.024;8.246;2022-08-14T00:48:36;5.00;;;2.40;;
22603;SDS011;11469;49.024;8.246;2022-08-14T00:51:06;2.83;;;1.92;;
22603;SDS011;11469;49.024;8.246;2022-08-14T00:53:32;5.80;;;2.35;;
22603;SDS011;11469;49.024;8.246;2022-08-14T00:55:58;3.25;;;2.38;;
22603;SDS011;11469;49.024;8.246;2022-08-14T00:58:24;7.72;;;2.33;;
22603;SDS011;11469;49.024;8.246;2022-08-14T01:00:56;9.77;;;2.85;;
22603;SDS011;11469;49.024;8.246;2022-08-14T01:03:23;7.57;;;2.75;;
22603;SDS011;11469;49.024;8.246;2022-08-14T01:05:50;7.35;;;2.65;;
22603;SDS011;11469;49.024;8.246;2022-08-14T01:08:18;9.40;;;2.53;;
22603;SDS011;11469;49.024;8.246;2022-08-14T01:10:46;6.10;;;2.92;;
22603;SDS011;11469;49.024;8.246;2022-08-14T01:13:16;3.65;;;2.20;;
22603;SDS011;11469;49.024;8.246;2022-08-14T01:15:46;5.65;;;2.20;;
22603;SDS011;11469;49.024;8.246;2022-08-14T01:18:12;4.47;;;2.30;;
22603;SDS011;11469;49.024;8.246;2022-08-14T01:23:31;6.38;;;2.70;;
22603;SDS011;11469;49.024;8.246;2022-08-14T01:25:58;4.80;;;2.55;;
22603;SDS011;11469;49.024;8.246;2022-08-14T01:28:24;2.88;;;2.45;;
22603;SDS011;11469;49.024;8.246;2022-08-14T01:30:55;5.53;;;2.53;;
22603;SDS011;11469;49.024;8.246;2022-08-14T01:33:24;9.02;;;2.60;;
22603;SDS011;11469;49.024;8.246;2022-08-14T01:35:53;8.05;;;2.50;;
22603;SDS011;11469;49.024;8.246;2022-08-14T01:38:22;4.20;;;2.38;;
22603;SDS011;11469;49.024;8.246;2022-08-14T01:40:49;7.00;;;2.85;;
22603;SDS011;11469;49.024;8.246;2022-08-14T01:43:15;5.03;;;2.65;;
22603;SDS011;11469;49.024;8.246;2022-08-14T01:45:42;8.38;;;2.53;;
22603;SDS011;11469;49.024;8.246;2022-08-14T01:48:08;6.00;;;2.80;;
22603;SDS011;11469;49.024;8.246;2022-08-14T01:50:34;4.00;;;3.00;;
22603;SDS011;11469;49.024;8.246;2022-08-14T01:53:00;3.10;;;2.65;;
22603;SDS011;11469;49.024;8.246;2022-08-14T01:55:27;6.80;;;2.65;;
22603;SDS011;11469;49.024;8.246;2022-08-14T01:57:56;7.43;;;2.80;;
22603;SDS011;11469;49.024;8.246;2022-08-14T02:00:23;3.90;;;2.50;;
22603;SDS011;11469;49.024;8.246;2022-08-14T02:02:49;3.97;;;2.63;;
22603;SDS011;11469;49.024;8.246;2022-08-14T02:05:14;7.25;;;2.55;;
22603;SDS011;11469;49.024;8.246;2022-08-14T02:07:41;5.70;;;2.40;;
22603;SDS011;11469;49.024;8.246;2022-08-14T02:10:11;3.28;;;2.22;;
22603;SDS011;11469;49.024;8.246;2022-08-14T02:12:38;6.15;;;2.63;;
22603;SDS011;11469;49.024;8.246;2022-08-14T02:15:05;4.80;;;2.60;;
22603;SDS011;11469;49.024;8.246;2022-08-14T02:17:33;5.00;;;3.28;;
22603;SDS011;11469;49.024;8.246;2022-08-14T02:19:59;5.28;;;2.60;;
22603;SDS011;11469;49.024;8.246;2022-08-14T02:22:24;5.82;;;2.85;;
22603;SDS011;11469;49.024;8.246;2022-08-14T02:24:50;5.70;;;2.75;;
22603;SDS011;11469;49.024;8.246;2022-08-14T02:27:15;9.52;;;3.05;;
22603;SDS011;11469;49.024;8.246;2022-08-14T02:29:42;6.00;;;2.80;;
22603;SDS011;11469;49.024;8.246;2022-08-14T02:32:08;4.93;;;2.70;;
22603;SDS011;11469;49.024;8.246;2022-08-14T02:34:34;4.47;;;2.70;;
22603;SDS011;11469;49.024;8.246;2022-08-14T02:37:02;4.32;;;2.90;;
22603;SDS011;11469;49.024;8.246;2022-08-14T02:39:30;5.25;;;3.05;;
22603;SDS011;11469;49.024;8.246;2022-08-14T02:41:57;8.52;;;3.40;;
22603;SDS011;11469;49.024;8.246;2022-08-14T02:44:23;6.82;;;3.10;;
22603;SDS011;11469;49.024;8.246;2022-08-14T02:46:50;6.82;;;2.85;;
22603;SDS011;11469;49.024;8.246;2022-08-14T02:49:17;9.30;;;4.00;;
22603;SDS011;11469;49.024;8.246;2022-08-14T02:51:52;7.25;;;2.95;;
22603;SDS011;11469;49.024;8.246;2022-08-14T02:54:18;4.60;;;2.90;;
22603;SDS011;11469;49.024;8.246;2022-08-14T02:56:44;4.85;;;3.08;;
22603;SDS011;11469;49.024;8.246;2022-08-14T02:59:09;6.85;;;2.88;;
22603;SDS011;11469;49.024;8.246;2022-08-14T03:01:38;5.68;;;3.38;;
22603;SDS011;11469;49.024;8.246;2022-08-14T03:04:04;4.90;;;3.03;;
22603;SDS011;11469;49.024;8.246;2022-08-14T03:06:30;6.25;;;2.92;;
22603;SDS011;11469;49.024;8.246;2022-08-14T03:08:55;7.25;;;3.17;;
22603;SDS011;11469;49.024;8.246;2022-08-14T03:11:23;3.50;;;3.00;;
22603;SDS011;11469;49.024;8.246;2022-08-14T03:13:50;10.68;;;3.85;;
22603;SDS011;11469;49.024;8.246;2022-08-14T03:16:18;10.75;;;2.95;;
22603;SDS011;11469;49.024;8.246;2022-08-14T03:18:51;4.03;;;2.78;;
22603;SDS011;11469;49.024;8.246;2022-08-14T03:21:19;4.75;;;3.55;;
22603;SDS011;11469;49.024;8.246;2022-08-14T03:23:49;4.97;;;2.80;;
22603;SDS011;11469;49.024;8.246;2022-08-14T03:26:23;6.95;;;3.22;;
22603;SDS011;11469;49.024;8.246;2022-08-14T03:28:51;8.13;;;2.95;;
22603;SDS011;11469;49.024;8.246;2022-08-14T03:31:18;5.45;;;3.22;;
22603;SDS011;11469;49.024;8.246;2022-08-14T03:33:49;6.60;;;3.67;;
22603;SDS011;11469;49.024;8.246;2022-08-14T03:36:16;4.90;;;3.70;;
22603;SDS011;11469;49.024;8.246;2022-08-14T03:38:45;6.40;;;3.65;;
22603;SDS011;11469;49.024;8.246;2022-08-14T03:41:23;4.35;;;3.22;;
22603;SDS011;11469;49.024;8.246;2022-08-14T03:43:53;7.97;;;3.67;;
22603;SDS011;11469;49.024;8.246;2022-08-14T03:46:21;4.57;;;3.40;;
22603;SDS011;11469;49.024;8.246;2022-08-14T03:48:50;8.73;;;3.67;;
22603;SDS011;11469;49.024;8.246;2022-08-14T03:51:18;6.10;;;3.45;;
22603;SDS011;11469;49.024;8.246;2022-08-14T03:53:44;14.25;;;4.85;;
22603;SDS011;11469;49.024;8.246;2022-08-14T03:56:11;10.32;;;4.40;;
22603;SDS011;11469;49.024;8.246;2022-08-14T03:58:39;6.00;;;3.83;;
22603;SDS011;11469;49.024;8.246;2022-08-14T04:01:07;5.90;;;3.80;;
22603;SDS011;11469;49.024;8.246;2022-08-14T04:03:33;7.15;;;4.07;;
22603;SDS011;11469;49.024;8.246;2022-08-14T04:05:59;11.43;;;4.05;;
22603;SDS011;11469;49.024;8.246;2022-08-14T04:08:24;4.38;;;3.80;;
22603;SDS011;11469;49.024;8.246;2022-08-14T04:10:50;8.18;;;4.15;;
22603;SDS011;11469;49.024;8.246;2022-08-14T04:13:15;6.50;;;3.70;;
22603;SDS011;11469;49.024;8.246;2022-08-14T04:15:45;9.88;;;4.00;;
22603;SDS011;11469;49.024;8.246;2022-08-14T04:18:11;5.85;;;4.18;;
22603;SDS011;11469;49.024;8.246;2022-08-14T04:20:38;9.07;;;4.65;;
22603;SDS011;11469;49.024;8.246;2022-08-14T04:23:06;5.78;;;4.35;;
22603;SDS011;11469;49.024;8.246;2022-08-14T04:25:35;5.78;;;4.40;;
22603;SDS011;11469;49.024;8.246;2022-08-14T04:28:02;7.40;;;4.53;;
22603;SDS011;11469;49.024;8.246;2022-08-14T04:30:29;6.28;;;4.00;;
22603;SDS011;11469;49.024;8.246;2022-08-14T04:32:56;11.23;;;4.90;;
22603;SDS011;11469;49.024;8.246;2022-08-14T04:35:21;5.72;;;4.22;;
22603;SDS011;11469;49.024;8.246;2022-08-14T04:37:47;5.93;;;4.57;;
22603;SDS011;11469;49.024;8.246;2022-08-14T04:40:31;5.75;;;4.43;;
22603;SDS011;11469;49.024;8.246;2022-08-14T04:43:15;5.47;;;4.03;;
22603;SDS011;11469;49.024;8.246;2022-08-14T04:46:00;5.90;;;4.70;;
22603;SDS011;11469;49.024;8.246;2022-08-14T04:48:26;8.05;;;5.18;;
22603;SDS011;11469;49.024;8.246;2022-08-14T04:50:53;9.00;;;4.82;;
22603;SDS011;11469;49.024;8.246;2022-08-14T04:53:21;8.60;;;5.22;;
22603;SDS011;11469;49.024;8.246;2022-08-14T04:55:49;13.00;;;5.10;;
22603;SDS011;11469;49.024;8.246;2022-08-14T04:58:15;6.47;;;5.07;;
22603;SDS011;11469;49.024;8.246;2022-08-14T05:00:43;7.15;;;5.13;;
22603;SDS011;11469;49.024;8.246;2022-08-14T05:03:09;7.85;;;4.82;;
22603;SDS011;11469;49.024;8.246;2022-08-14T05:05:35;10.07;;;4.97;;
22603;SDS011;11469;49.024;8.246;2022-08-14T05:08:05;6.50;;;5.28;;
22603;SDS011;11469;49.024;8.246;2022-08-14T05:10:33;11.57;;;5.03;;
22603;SDS011;11469;49.024;8.246;2022-08-14T05:12:59;13.68;;;5.53;;
22603;SDS011;11469;49.024;8.246;2022-08-14T05:15:25;9.02;;;5.50;;
22603;SDS011;11469;49.024;8.246;2022-08-14T05:17:54;10.40;;;5.22;;
22603;SDS011;11469;49.024;8.246;2022-08-14T05:20:20;6.88;;;5.90;;
22603;SDS011;11469;49.024;8.246;2022-08-14T05:22:45;6.90;;;5.32;;
22603;SDS011;11469;49.024;8.246;2022-08-14T05:25:11;15.48;;;6.10;;
22603;SDS011;11469;49.024;8.246;2022-08-14T05:27:36;10.43;;;5.72;;
22603;SDS011;11469;49.024;8.246;2022-08-14T05:30:03;6.82;;;4.85;;
22603;SDS011;11469;49.024;8.246;2022-08-14T05:32:29;7.68;;;5.88;;
22603;SDS011;11469;49.024;8.246;2022-08-14T05:34:56;8.30;;;5.80;;
22603;SDS011;11469;49.024;8.246;2022-08-14T05:37:23;7.93;;;6.07;;
22603;SDS011;11469;49.024;8.246;2022-08-14T05:39:48;9.50;;;5.90;;
22603;SDS011;11469;49.024;8.246;2022-08-14T05:42:14;9.30;;;5.95;;
22603;SDS011;11469;49.024;8.246;2022-08-14T05:44:41;13.18;;;6.45;;
22603;SDS011;11469;49.024;8.246;2022-08-14T05:47:06;13.10;;;6.22;;
22603;SDS011;11469;49.024;8.246;2022-08-14T05:49:31;9.52;;;6.53;;
22603;SDS011;11469;49.024;8.246;2022-08-14T05:51:57;8.18;;;5.50;;
22603;SDS011;11469;49.024;8.246;2022-08-14T05:54:22;11.15;;;6.22;;
22603;SDS011;11469;49.024;8.246;2022-08-14T05:56:47;7.90;;;6.00;;
22603;SDS011;11469;49.024;8.246;2022-08-14T05:59:13;8.23;;;5.82;;
22603;SDS011;11469;49.024;8.246;2022-08-14T06:01:39;6.38;;;4.95;;
22603;SDS011;11469;49.024;8.246;2022-08-14T06:04:04;10.23;;;5.53;;
22603;SDS011;11469;49.024;8.246;2022-08-14T06:06:29;11.38;;;5.90;;
22603;SDS011;11469;49.024;8.246;2022-08-14T06:08:55;9.00;;;5.50;;
22603;SDS011;11469;49.024;8.246;2022-08-14T06:11:20;8.88;;;5.88;;
22603;SDS011;11469;49.024;8.246;2022-08-14T06:13:46;15.75;;;6.05;;
22603;SDS011;11469;49.024;8.246;2022-08-14T06:16:15;7.35;;;5.65;;
22603;SDS011;11469;49.024;8.246;2022-08-14T06:18:41;7.53;;;5.53;;
22603;SDS011;11469;49.024;8.246;2022-08-14T06:21:06;7.55;;;5.43;;
22603;SDS011;11469;49.024;8.246;2022-08-14T06:23:32;6.95;;;5.35;;
22603;SDS011;11469;49.024;8.246;2022-08-14T06:25:57;5.93;;;4.78;;
22603;SDS011;11469;49.024;8.246;2022-08-14T06:28:23;5.65;;;4.80;;
22603;SDS011;11469;49.024;8.246;2022-08-14T06:30:50;8.25;;;4.80;;
22603;SDS011;11469;49.024;8.246;2022-08-14T06:33:16;5.75;;;4.50;;
22603;SDS011;11469;49.024;8.246;2022-08-14T06:35:43;5.38;;;4.38;;
22603;SDS011;11469;49.024;8.246;2022-08-14T06:38:12;7.68;;;4.85;;
22603;SDS011;11469;49.024;8.246;2022-08-14T06:40:42;7.03;;;5.20;;
22603;SDS011;11469;49.024;8.246;2022-08-14T06:43:09;15.38;;;5.00;;
22603;SDS011;11469;49.024;8.246;2022-08-14T06:45:36;9.07;;;4.60;;
22603;SDS011;11469;49.024;8.246;2022-08-14T06:48:03;7.85;;;4.72;;
22603;SDS011;11469;49.024;8.246;2022-08-14T06:50:29;10.90;;;4.93;;
22603;SDS011;11469;49.024;8.246;2022-08-14T06:52:55;6.32;;;5.00;;
22603;SDS011;11469;49.024;8.246;2022-08-14T06:55:24;6.32;;;4.50;;
22603;SDS011;11469;49.024;8.246;2022-08-14T06:57:50;7.50;;;4.13;;
22603;SDS011;11469;49.024;8.246;2022-08-14T07:00:23;7.75;;;3.95;;
22603;SDS011;11469;49.024;8.246;2022-08-14T07:02:52;9.75;;;4.68;;
22603;SDS011;11469;49.024;8.246;2022-08-14T07:05:37;10.85;;;4.72;;
22603;SDS011;11469;49.024;8.246;2022-08-14T07:08:15;7.20;;;4.78;;
22603;SDS011;11469;49.024;8.246;2022-08-14T07:10:52;7.68;;;4.50;;
22603;SDS011;11469;49.024;8.246;2022-08-14T07:13:20;9.77;;;4.90;;
22603;SDS011;11469;49.024;8.246;2022-08-14T07:15:47;9.13;;;4.65;;
22603;SDS011;11469;49.024;8.246;2022-08-14T07:18:17;8.10;;;4.63;;
22603;SDS011;11469;49.024;8.246;2022-08-14T07:20:47;7.65;;;4.53;;
22603;SDS011;11469;49.024;8.246;2022-08-14T07:23:13;14.70;;;4.93;;
22603;SDS011;11469;49.024;8.246;2022-08-14T07:25:40;6.22;;;4.72;;
22603;SDS011;11469;49.024;8.246;2022-08-14T07:28:13;5.72;;;4.95;;
22603;SDS011;11469;49.024;8.246;2022-08-14T07:30:43;6.90;;;4.72;;
22603;SDS011;11469;49.024;8.246;2022-08-14T07:33:09;6.97;;;5.05;;
22603;SDS011;11469;49.024;8.246;2022-08-14T07:35:36;7.05;;;5.53;;
22603;SDS011;11469;49.024;8.246;2022-08-14T07:38:04;7.38;;;4.88;;
22603;SDS011;11469;49.024;8.246;2022-08-14T07:40:30;6.13;;;4.40;;
22603;SDS011;11469;49.024;8.246;2022-08-14T07:42:56;7.95;;;4.72;;
22603;SDS011;11469;49.024;8.246;2022-08-14T07:45:21;5.70;;;4.70;;
22603;SDS011;11469;49.024;8.246;2022-08-14T07:47:47;6.43;;;5.05;;
22603;SDS011;11469;49.024;8.246;2022-08-14T07:50:14;8.32;;;4.40;;
22603;SDS011;11469;49.024;8.246;2022-08-14T07:52:44;7.13;;;5.55;;
22603;SDS011;11469;49.024;8.246;2022-08-14T07:55:12;8.95;;;5.22;;
22603;SDS011;11469;49.024;8.246;2022-08-14T07:57:39;11.57;;;5.00;;
22603;SDS011;11469;49.024;8.246;2022-08-14T08:00:06;6.07;;;5.00;;
22603;SDS011;11469;49.024;8.246;2022-08-14T08:02:37;6.97;;;4.68;;
22603;SDS011;11469;49.024;8.246;2022-08-14T08:05:08;6.20;;;4.40;;
22603;SDS011;11469;49.024;8.246;2022-08-14T08:07:36;7.43;;;4.57;;
22603;SDS011;11469;49.024;8.246;2022-08-14T08:10:08;5.75;;;4.00;;
22603;SDS011;11469;49.024;8.246;2022-08-14T08:12:55;8.38;;;4.07;;
22603;SDS011;11469;49.024;8.246;2022-08-14T08:15:24;13.35;;;4.22;;
22603;SDS011;11469;49.024;8.246;2022-08-14T08:17:50;7.95;;;4.28;;
22603;SDS011;11469;49.024;8.246;2022-08-14T08:20:17;5.60;;;3.60;;
22603;SDS011;11469;49.024;8.246;2022-08-14T08:22:48;5.22;;;3.70;;
22603;SDS011;11469;49.024;8.246;2022-08-14T08:25:15;7.05;;;3.85;;
22603;SDS011;11469;49.024;8.246;2022-08-14T08:27:41;6.88;;;3.67;;
22603;SDS011;11469;49.024;8.246;2022-08-14T08:30:07;9.02;;;3.65;;
22603;SDS011;11469;49.024;8.246;2022-08-14T08:32:41;5.72;;;4.20;;
22603;SDS011;11469;49.024;8.246;2022-08-14T08:35:17;5.43;;;4.00;;
22603;SDS011;11469;49.024;8.246;2022-08-14T08:37:47;6.90;;;3.40;;
22603;SDS011;11469;49.024;8.246;2022-08-14T08:40:24;9.63;;;3.63;;
22603;SDS011;11469;49.024;8.246;2022-08-14T08:42:51;13.77;;;3.53;;
22603;SDS011;11469;49.024;8.246;2022-08-14T08:45:17;5.32;;;3.38;;
22603;SDS011;11469;49.024;8.246;2022-08-14T08:47:44;7.18;;;2.80;;
22603;SDS011;11469;49.024;8.246;2022-08-14T08:50:17;7.45;;;3.20;;
22603;SDS011;11469;49.024;8.246;2022-08-14T08:52:50;7.25;;;3.83;;
22603;SDS011;11469;49.024;8.246;2022-08-14T08:55:33;3.20;;;2.90;;
22603;SDS011;11469;49.024;8.246;2022-08-14T08:58:03;4.95;;;3.00;;
22603;SDS011;11469;49.024;8.246;2022-08-14T09:00:30;5.95;;;2.90;;
22603;SDS011;11469;49.024;8.246;2022-08-14T09:03:08;8.07;;;3.60;;
22603;SDS011;11469;49.024;8.246;2022-08-14T09:05:36;4.07;;;3.05;;
22603;SDS011;11469;49.024;8.246;2022-08-14T09:08:09;8.95;;;2.85;;
22603;SDS011;11469;49.024;8.246;2022-08-14T09:10:35;4.05;;;3.15;;
22603;SDS011;11469;49.024;8.246;2022-08-14T09:13:01;5.00;;;3.30;;
22603;SDS011;11469;49.024;8.246;2022-08-14T09:15:26;4.03;;;3.30;;
22603;SDS011;11469;49.024;8.246;2022-08-14T09:17:52;3.80;;;2.83;;
22603;SDS011;11469;49.024;8.246;2022-08-14T09:20:18;10.10;;;3.13;;
22603;SDS011;11469;49.024;8.246;2022-08-14T09:22:44;7.78;;;2.70;;
22603;SDS011;11469;49.024;8.246;2022-08-14T09:25:09;4.20;;;2.65;;
22603;SDS011;11469;49.024;8.246;2022-08-14T09:27:36;7.95;;;3.15;;
22603;SDS011;11469;49.024;8.246;2022-08-14T09:30:03;5.47;;;2.70;;
22603;SDS011;11469;49.024;8.246;2022-08-14T09:32:33;12.40;;;2.63;;
22603;SDS011;11469;49.024;8.246;2022-08-14T09:35:10;8.27;;;2.95;;
22603;SDS011;11469;49.024;8.246;2022-08-14T09:45:47;2.38;;;2.00;;
22603;SDS011;11469;49.024;8.246;2022-08-14T09:48:17;4.43;;;2.40;;
22603;SDS011;11469;49.024;8.246;2022-08-14T09:50:45;3.05;;;2.17;;
22603;SDS011;11469;49.024;8.246;2022-08-14T09:56:08;9.48;;;2.53;;
22603;SDS011;11469;49.024;8.246;2022-08-14T09:58:36;8.43;;;2.33;;
22603;SDS011;11469;49.024;8.246;2022-08-14T10:01:07;3.70;;;2.08;;
22603;SDS011;11469;49.024;8.246;2022-08-14T10:03:35;4.40;;;2.13;;
22603;SDS011;11469;49.024;8.246;2022-08-14T10:06:08;7.18;;;1.98;;
22603;SDS011;11469;49.024;8.246;2022-08-14T10:08:45;5.25;;;2.10;;
22603;SDS011;11469;49.024;8.246;2022-08-14T10:11:20;8.50;;;2.10;;
22603;SDS011;11469;49.024;8.246;2022-08-14T10:13:48;2.20;;;1.80;;
22603;SDS011;11469;49.024;8.246;2022-08-14T10:16:19;3.58;;;1.73;;
22603;SDS011;11469;49.024;8.246;2022-08-14T10:19:02;11.63;;;1.60;;
22603;SDS011;11469;49.024;8.246;2022-08-14T10:21:36;2.90;;;1.30;;
22603;SDS011;11469;49.024;8.246;2022-08-14T10:24:03;4.05;;;1.38;;
22603;SDS011;11469;49.024;8.246;2022-08-14T10:26:33;3.33;;;1.60;;
22603;SDS011;11469;49.024;8.246;2022-08-14T10:29:06;3.28;;;1.70;;
22603;SDS011;11469;49.024;8.246;2022-08-14T10:31:35;2.35;;;1.30;;
22603;SDS011;11469;49.024;8.246;2022-08-14T10:34:08;2.38;;;1.75;;
22603;SDS011;11469;49.024;8.246;2022-08-14T10:36:40;3.05;;;1.35;;
22603;SDS011;11469;49.024;8.246;2022-08-14T10:39:15;2.60;;;1.52;;
22603;SDS011;11469;49.024;8.246;2022-08-14T10:41:44;3.95;;;1.50;;
22603;SDS011;11469;49.024;8.246;2022-08-14T10:44:11;6.20;;;1.40;;
22603;SDS011;11469;49.024;8.246;2022-08-14T10:49:38;2.40;;;1.58;;
22603;SDS011;11469;49.024;8.246;2022-08-14T10:52:18;8.52;;;1.85;;
22603;SDS011;11469;49.024;8.246;2022-08-14T10:54:48;2.53;;;1.45;;
22603;SDS011;11469;49.024;8.246;2022-08-14T10:57:24;2.17;;;1.77;;
22603;SDS011;11469;49.024;8.246;2022-08-14T10:59:52;7.22;;;1.58;;
22603;SDS011;11469;49.024;8.246;2022-08-14T11:07:31;4.05;;;1.23;;
22603;SDS011;11469;49.024;8.246;2022-08-14T11:09:59;5.93;;;1.67;;
22603;SDS011;11469;49.024;8.246;2022-08-14T11:12:26;7.07;;;1.60;;
22603;SDS011;11469;49.024;8.246;2022-08-14T11:15:04;7.00;;;1.50;;
22603;SDS011;11469;49.024;8.246;2022-08-14T11:17:31;3.50;;;1.50;;
22603;SDS011;11469;49.024;8.246;2022-08-14T11:19:57;5.30;;;1.80;;
22603;SDS011;11469;49.024;8.246;2022-08-14T11:22:28;1.90;;;1.42;;
22603;SDS011;11469;49.024;8.246;2022-08-14T11:24:55;3.58;;;1.65;;
22603;SDS011;11469;49.024;8.246;2022-08-14T11:27:26;7.60;;;1.55;;
22603;SDS011;11469;49.024;8.246;2022-08-14T11:29:54;4.57;;;1.50;;
22603;SDS011;11469;49.024;8.246;2022-08-14T11:32:24;2.28;;;1.10;;
22603;SDS011;11469;49.024;8.246;2022-08-14T11:34:49;4.35;;;1.63;;
22603;SDS011;11469;49.024;8.246;2022-08-14T11:37:17;4.78;;;1.42;;
22603;SDS011;11469;49.024;8.246;2022-08-14T11:39:43;5.30;;;1.30;;
22603;SDS011;11469;49.024;8.246;2022-08-14T11:42:17;1.90;;;1.35;;
22603;SDS011;11469;49.024;8.246;2022-08-14T11:44:44;4.40;;;1.35;;
22603;SDS011;11469;49.024;8.246;2022-08-14T11:47:10;4.75;;;1.60;;
22603;SDS011;11469;49.024;8.246;2022-08-14T11:49:43;4.82;;;1.77;;
22603;SDS011;11469;49.024;8.246;2022-08-14T11:52:16;5.53;;;1.38;;
22603;SDS011;11469;49.024;8.246;2022-08-14T11:54:43;5.60;;;1.35;;
22603;SDS011;11469;49.024;8.246;2022-08-14T11:57:12;2.13;;;1.48;;
22603;SDS011;11469;49.024;8.246;2022-08-14T11:59:41;9.27;;;1.48;;
22603;SDS011;11469;49.024;8.246;2022-08-14T12:02:11;2.67;;;1.40;;
22603;SDS011;11469;49.024;8.246;2022-08-14T12:04:47;3.67;;;1.17;;
22603;SDS011;11469;49.024;8.246;2022-08-14T12:07:14;8.68;;;1.40;;
22603;SDS011;11469;49.024;8.246;2022-08-14T12:09:40;4.50;;;1.30;;
22603;SDS011;11469;49.024;8.246;2022-08-14T12:12:18;1.83;;;1.10;;
22603;SDS011;11469;49.024;8.246;2022-08-14T12:14:50;1.23;;;0.80;;
22603;SDS011;11469;49.024;8.246;2022-08-14T12:17:26;2.70;;;1.08;;
22603;SDS011;11469;49.024;8.246;2022-08-14T12:19:57;1.92;;;1.08;;
22603;SDS011;11469;49.024;8.246;2022-08-14T12:22:38;1.73;;;1.10;;
22603;SDS011;11469;49.024;8.246;2022-08-14T12:25:10;3.20;;;1.35;;
22603;SDS011;11469;49.024;8.246;2022-08-14T12:27:38;3.72;;;0.88;;
22603;SDS011;11469;49.024;8.246;2022-08-14T12:30:11;1.75;;;1.00;;
22603;SDS011;11469;49.024;8.246;2022-08-14T12:32:41;3.90;;;1.40;;
22603;SDS011;11469;49.024;8.246;2022-08-14T12:35:08;3.40;;;0.95;;
22603;SDS011;11469;49.024;8.246;2022-08-14T12:37:35;1.48;;;0.90;;
22603;SDS011;11469;49.024;8.246;2022-08-14T12:40:35;6.82;;;1.13;;
22603;SDS011;11469;49.024;8.246;2022-08-14T12:43:04;2.13;;;1.02;;
22603;SDS011;11469;49.024;8.246;2022-08-14T12:48:01;3.65;;;1.10;;
22603;SDS011;11469;49.024;8.246;2022-08-14T12:50:35;4.53;;;1.13;;
22603;SDS011;11469;49.024;8.246;2022-08-14T12:53:06;2.15;;;1.20;;
22603;SDS011;11469;49.024;8.246;2022-08-14T12:55:33;1.92;;;1.02;;
22603;SDS011;11469;49.024;8.246;2022-08-14T12:58:00;5.43;;;0.90;;
22603;SDS011;11469;49.024;8.246;2022-08-14T13:00:29;1.63;;;1.00;;
22603;SDS011;11469;49.024;8.246;2022-08-14T13:02:56;2.65;;;1.02;;
22603;SDS011;11469;49.024;8.246;2022-08-14T13:05:22;1.60;;;1.10;;
22603;SDS011;11469;49.024;8.246;2022-08-14T13:07:49;2.20;;;1.10;;
22603;SDS011;11469;49.024;8.246;2022-08-14T13:10:17;4.13;;;1.02;;
22603;SDS011;11469;49.024;8.246;2022-08-14T13:12:47;2.53;;;0.90;;
22603;SDS011;11469;49.024;8.246;2022-08-14T13:15:15;1.73;;;1.10;;
22603;SDS011;11469;49.024;8.246;2022-08-14T13:17:48;1.52;;;0.82;;
22603;SDS011;11469;49.024;8.246;2022-08-14T13:20:17;1.05;;;1.00;;
22603;SDS011;11469;49.024;8.246;2022-08-14T13:22:44;6.15;;;1.23;;
22603;SDS011;11469;49.024;8.246;2022-08-14T13:25:14;1.73;;;0.85;;
22603;SDS011;11469;49.024;8.246;2022-08-14T13:27:45;1.90;;;1.30;;
22603;SDS011;11469;49.024;8.246;2022-08-14T13:30:13;2.80;;;1.05;;
22603;SDS011;11469;49.024;8.246;2022-08-14T13:32:41;0.90;;;0.70;;
22603;SDS011;11469;49.024;8.246;2022-08-14T13:35:12;4.38;;;1.05;;
22603;SDS011;11469;49.024;8.246;2022-08-14T13:37:40;2.92;;;1.13;;
22603;SDS011;11469;49.024;8.246;2022-08-14T13:40:06;2.22;;;1.08;;
22603;SDS011;11469;49.024;8.246;2022-08-14T13:42:32;5.97;;;0.80;;
22603;SDS011;11469;49.024;8.246;2022-08-14T13:45:02;3.20;;;0.90;;
22603;SDS011;11469;49.024;8.246;2022-08-14T13:47:30;2.90;;;1.08;;
22603;SDS011;11469;49.024;8.246;2022-08-14T13:49:57;5.93;;;1.30;;
22603;SDS011;11469;49.024;8.246;2022-08-14T13:52:26;2.40;;;1.05;;
22603;SDS011;11469;49.024;8.246;2022-08-14T13:54:54;3.25;;;1.02;;
22603;SDS011;11469;49.024;8.246;2022-08-14T13:57:23;4.70;;;0.82;;
22603;SDS011;11469;49.024;8.246;2022-08-14T13:59:49;3.17;;;1.35;;
22603;SDS011;11469;49.024;8.246;2022-08-14T14:02:15;5.68;;;1.00;;
22603;SDS011;11469;49.024;8.246;2022-08-14T14:04:43;2.58;;;1.20;;
22603;SDS011;11469;49.024;8.246;2022-08-14T14:07:11;2.25;;;1.10;;
22603;SDS011;11469;49.024;8.246;2022-08-14T14:09:42;1.40;;;1.02;;
22603;SDS011;11469;49.024;8.246;2022-08-14T14:12:10;2.22;;;1.00;;
22603;SDS011;11469;49.024;8.246;2022-08-14T14:14:36;1.85;;;1.15;;
22603;SDS011;11469;49.024;8.246;2022-08-14T14:17:06;1.40;;;1.00;;
22603;SDS011;11469;49.024;8.246;2022-08-14T14:19:33;3.47;;;1.15;;
22603;SDS011;11469;49.024;8.246;2022-08-14T14:22:02;2.05;;;1.70;;
22603;SDS011;11469;49.024;8.246;2022-08-14T14:24:30;3.42;;;1.25;;
22603;SDS011;11469;49.024;8.246;2022-08-14T14:27:00;3.50;;;1.50;;
22603;SDS011;11469;49.024;8.246;2022-08-14T14:29:29;6.15;;;0.90;;
22603;SDS011;11469;49.024;8.246;2022-08-14T14:31:55;2.03;;;1.30;;
22603;SDS011;11469;49.024;8.246;2022-08-14T14:34:25;1.98;;;1.10;;
22603;SDS011;11469;49.024;8.246;2022-08-14T14:36:52;5.13;;;1.65;;
22603;SDS011;11469;49.024;8.246;2022-08-14T14:39:23;2.67;;;1.40;;
22603;SDS011;11469;49.024;8.246;2022-08-14T14:41:55;2.60;;;1.60;;
22603;SDS011;11469;49.024;8.246;2022-08-14T14:44:27;1.90;;;1.45;;
22603;SDS011;11469;49.024;8.246;2022-08-14T14:46:58;4.43;;;1.55;;
22603;SDS011;11469;49.024;8.246;2022-08-14T14:49:25;5.65;;;1.48;;
22603;SDS011;11469;49.024;8.246;2022-08-14T14:51:52;2.92;;;1.73;;
22603;SDS011;11469;49.024;8.246;2022-08-14T14:54:20;4.22;;;1.80;;
22603;SDS011;11469;49.024;8.246;2022-08-14T14:56:47;2.22;;;1.60;;
22603;SDS011;11469;49.024;8.246;2022-08-14T14:59:13;6.05;;;1.70;;
22603;SDS011;11469;49.024;8.246;2022-08-14T15:01:39;3.50;;;1.70;;
22603;SDS011;11469;49.024;8.246;2022-08-14T15:04:11;5.18;;;1.70;;
22603;SDS011;11469;49.024;8.246;2022-08-14T15:06:37;4.88;;;1.85;;
22603;SDS011;11469;49.024;8.246;2022-08-14T15:09:03;4.13;;;2.10;;
22603;SDS011;11469;49.024;8.246;2022-08-14T15:11:29;4.40;;;1.92;;
22603;SDS011;11469;49.024;8.246;2022-08-14T15:13:54;4.53;;;1.75;;
22603;SDS011;11469;49.024;8.246;2022-08-14T15:16:19;2.22;;;1.50;;